Time;durP1;ratioP1;P1;durP2;ratioP2;P2;SDS_P1;SDS_P2;PMS_P1;PMS_P2;Temp;Humidity;BMP_temperature;BMP_pressure;BME280_temperature;BME280_humidity;BME280_pressure;Samples;Min_cycle;Max_cycle;Signal;HPM_P1;HPM_P2
2022/03/02 00:00:16;;;;;;;14.05;6.03;;;;;;;;;;5029344;28;20111;-59
2022/03/02 00:02:44;;;;;;;20.83;6.97;;;;;;;;;;5031480;28;20149;-60
2022/03/02 00:05:11;;;;;;;17.43;8.03;;;;;;;;;;5048249;28;20049;-57
2022/03/02 00:07:37;;;;;;;16.35;7.47;;;;;;;;;;5043130;28;20065;-59
2022/03/02 00:10:06;;;;;;;21.90;8.85;;;;;;;;;;5049282;28;20098;-58
2022/03/02 00:12:33;;;;;;;24.60;9.38;;;;;;;;;;5043350;28;20052;-56
2022/03/02 00:15:00;;;;;;;21.08;8.60;;;;;;;;;;5048941;28;20049;-59
2022/03/02 00:17:26;;;;;;;23.42;9.35;;;;;;;;;;5043181;28;20063;-61
2022/03/02 00:19:54;;;;;;;21.73;8.68;;;;;;;;;;5047688;28;20494;-58
2022/03/02 00:22:23;;;;;;;21.20;9.07;;;;;;;;;;5041517;28;20159;-56
2022/03/02 00:24:51;;;;;;;21.58;8.57;;;;;;;;;;5035132;28;20137;-56
2022/03/02 00:27:18;;;;;;;25.63;9.35;;;;;;;;;;5022703;28;20045;-58
2022/03/02 00:29:44;;;;;;;20.42;9.23;;;;;;;;;;5027124;28;20131;-58
2022/03/02 00:32:13;;;;;;;22.13;8.77;;;;;;;;;;5021765;28;20053;-60
2022/03/02 00:34:40;;;;;;;23.92;8.85;;;;;;;;;;5040889;28;20387;-61
2022/03/02 00:37:08;;;;;;;23.05;8.90;;;;;;;;;;5041343;28;20053;-61
2022/03/02 00:39:35;;;;;;;25.52;9.02;;;;;;;;;;5047420;28;20060;-58
2022/03/02 00:42:01;;;;;;;20.85;8.45;;;;;;;;;;5043344;28;20136;-61
2022/03/02 00:44:30;;;;;;;22.15;8.13;;;;;;;;;;5046849;28;20053;-62
2022/03/02 00:46:57;;;;;;;19.02;7.80;;;;;;;;;;5048497;28;20107;-60
2022/03/02 00:49:27;;;;;;;23.00;8.68;;;;;;;;;;5041616;28;20136;-62
2022/03/02 00:51:54;;;;;;;22.92;7.95;;;;;;;;;;5047101;28;20048;-64
2022/03/02 00:54:24;;;;;;;22.58;9.48;;;;;;;;;;5041649;28;20275;-62
2022/03/02 00:56:51;;;;;;;23.27;9.02;;;;;;;;;;5046666;28;20069;-62
2022/03/02 00:59:18;;;;;;;19.90;8.60;;;;;;;;;;5041352;28;20495;-62
2022/03/02 01:01:44;;;;;;;23.88;9.77;;;;;;;;;;5047026;28;20056;-58
2022/03/02 01:04:11;;;;;;;22.77;8.73;;;;;;;;;;5041202;28;20083;-59
2022/03/02 01:06:38;;;;;;;22.00;8.82;;;;;;;;;;5047283;28;20065;-60
2022/03/02 01:09:05;;;;;;;20.17;7.72;;;;;;;;;;5041202;28;20045;-62
2022/03/02 01:11:32;;;;;;;18.60;7.50;;;;;;;;;;5036223;28;20049;-62
2022/03/02 01:13:59;;;;;;;16.30;6.87;;;;;;;;;;5028353;28;20057;-60
2022/03/02 01:16:32;;;;;;;16.88;7.18;;;;;;;;;;5082819;28;20382;-63
2022/03/02 01:18:59;;;;;;;20.00;8.05;;;;;;;;;;5042091;28;20317;-62
2022/03/02 01:21:25;;;;;;;17.10;7.13;;;;;;;;;;5046823;28;20041;-61
2022/03/02 01:23:53;;;;;;;29.55;9.48;;;;;;;;;;5040854;28;20053;-58
2022/03/02 01:26:21;;;;;;;19.63;7.85;;;;;;;;;;5046662;28;20095;-62
2022/03/02 01:28:50;;;;;;;19.52;7.78;;;;;;;;;;5043152;28;20377;-60
2022/03/02 01:31:16;;;;;;;19.45;7.90;;;;;;;;;;5044846;28;20053;-62
2022/03/02 01:33:43;;;;;;;23.65;8.85;;;;;;;;;;5046324;28;20049;-59
2022/03/02 01:36:09;;;;;;;22.00;8.45;;;;;;;;;;5040787;28;20502;-61
2022/03/02 01:38:36;;;;;;;23.90;8.18;;;;;;;;;;5046240;28;20052;-61
2022/03/02 01:41:04;;;;;;;28.02;8.93;;;;;;;;;;5040007;28;20063;-63
2022/03/02 01:43:31;;;;;;;22.17;8.70;;;;;;;;;;5045989;28;20103;-62
2022/03/02 01:45:59;;;;;;;24.75;9.60;;;;;;;;;;5040195;28;20061;-62
2022/03/02 01:48:25;;;;;;;24.45;9.18;;;;;;;;;;5045773;28;20118;-58
2022/03/02 01:50:52;;;;;;;25.00;8.55;;;;;;;;;;5040655;28;20148;-56
2022/03/02 01:53:18;;;;;;;22.70;9.40;;;;;;;;;;5045994;28;20157;-62
2022/03/02 01:55:45;;;;;;;16.25;6.80;;;;;;;;;;5040308;28;20144;-59
2022/03/02 01:58:11;;;;;;;19.88;8.27;;;;;;;;;;5045248;28;20470;-55
2022/03/02 02:00:38;;;;;;;23.40;9.02;;;;;;;;;;5073054;28;20061;-57
2022/03/02 02:03:06;;;;;;;22.55;9.13;;;;;;;;;;5045618;28;20077;-59
2022/03/02 02:05:35;;;;;;;21.85;9.32;;;;;;;;;;5074408;28;20498;-55
2022/03/02 02:08:02;;;;;;;25.40;9.48;;;;;;;;;;5046501;28;20063;-58
2022/03/02 02:10:28;;;;;;;20.65;8.80;;;;;;;;;;5041925;28;20140;-57
2022/03/02 02:12:55;;;;;;;22.38;9.75;;;;;;;;;;5045635;28;20049;-56
2022/03/02 02:15:22;;;;;;;19.13;8.25;;;;;;;;;;5045953;28;20092;-57
2022/03/02 02:17:49;;;;;;;25.08;9.50;;;;;;;;;;5040032;28;20061;-53
2022/03/02 02:20:17;;;;;;;22.33;9.07;;;;;;;;;;5045373;28;20146;-55
2022/03/02 02:22:46;;;;;;;25.73;10.43;;;;;;;;;;5040530;28;20053;-62
2022/03/02 02:25:13;;;;;;;18.00;8.35;;;;;;;;;;5045643;28;20049;-58
2022/03/02 02:27:40;;;;;;;23.30;9.63;;;;;;;;;;5040697;28;20049;-59
2022/03/02 02:30:07;;;;;;;24.73;9.52;;;;;;;;;;5046024;28;20128;-60
2022/03/02 02:32:33;;;;;;;18.00;7.82;;;;;;;;;;5040705;28;20084;-59
2022/03/02 02:35:03;;;;;;;25.48;9.27;;;;;;;;;;5080363;28;20056;-56
2022/03/02 02:37:30;;;;;;;22.08;8.77;;;;;;;;;;5041305;28;20059;-60
2022/03/02 02:39:59;;;;;;;23.98;9.55;;;;;;;;;;5047637;28;20048;-54
2022/03/02 02:42:26;;;;;;;20.80;9.05;;;;;;;;;;5041620;28;20122;-61
2022/03/02 02:44:53;;;;;;;22.67;9.88;;;;;;;;;;5048924;28;20045;-61
2022/03/02 02:47:19;;;;;;;25.65;10.68;;;;;;;;;;5043494;28;20076;-55
2022/03/02 02:49:46;;;;;;;25.60;9.68;;;;;;;;;;5048582;28;20049;-55
2022/03/02 02:52:15;;;;;;;20.40;9.27;;;;;;;;;;5042209;28;20065;-60
2022/03/02 02:54:42;;;;;;;24.83;10.27;;;;;;;;;;5046382;28;20067;-60
2022/03/02 02:57:10;;;;;;;28.60;10.88;;;;;;;;;;5045855;28;20057;-61
2022/03/02 02:59:37;;;;;;;25.38;10.40;;;;;;;;;;5039576;28;20056;-61
2022/03/02 03:02:03;;;;;;;23.50;9.75;;;;;;;;;;5032833;28;20064;-61
2022/03/02 03:04:30;;;;;;;16.73;7.43;;;;;;;;;;5041234;28;20076;-58
2022/03/02 03:06:57;;;;;;;21.98;9.18;;;;;;;;;;5048309;28;20064;-61
2022/03/02 03:09:23;;;;;;;24.70;10.55;;;;;;;;;;5076632;28;20053;-61
2022/03/02 03:11:49;;;;;;;18.17;7.60;;;;;;;;;;5048671;28;20072;-63
2022/03/02 03:14:17;;;;;;;25.90;10.13;;;;;;;;;;5073812;28;20083;-62
2022/03/02 03:16:44;;;;;;;28.57;11.00;;;;;;;;;;5065457;28;20049;-59
2022/03/02 03:19:11;;;;;;;29.50;10.13;;;;;;;;;;5053066;28;20303;-60
2022/03/02 03:21:37;;;;;;;26.98;10.43;;;;;;;;;;5049111;28;20056;-59
2022/03/02 03:24:05;;;;;;;22.85;8.70;;;;;;;;;;5042630;28;20057;-58
2022/03/02 03:26:31;;;;;;;24.70;9.45;;;;;;;;;;5048523;28;20057;-62
2022/03/02 03:28:58;;;;;;;27.90;10.40;;;;;;;;;;5042782;28;20103;-60
2022/03/02 03:31:26;;;;;;;26.30;10.38;;;;;;;;;;5048451;28;20063;-61
2022/03/02 03:33:52;;;;;;;22.23;9.07;;;;;;;;;;5042818;28;20057;-63
2022/03/02 03:36:19;;;;;;;23.00;10.52;;;;;;;;;;5048574;28;20057;-63
2022/03/02 03:38:46;;;;;;;26.42;9.65;;;;;;;;;;5048352;28;20130;-59
2022/03/02 03:41:12;;;;;;;23.92;9.32;;;;;;;;;;5043839;28;20059;-63
2022/03/02 03:43:38;;;;;;;21.20;8.82;;;;;;;;;;5049557;28;20056;-61
2022/03/02 03:46:05;;;;;;;21.33;9.32;;;;;;;;;;5044032;28;20052;-60
2022/03/02 03:48:33;;;;;;;26.70;10.85;;;;;;;;;;5048184;28;20057;-61
2022/03/02 03:51:00;;;;;;;22.60;8.55;;;;;;;;;;5042673;28;20068;-58
2022/03/02 03:53:26;;;;;;;26.50;10.20;;;;;;;;;;5048712;28;20053;-61
2022/03/02 03:55:53;;;;;;;25.70;9.30;;;;;;;;;;5043061;28;20049;-58
2022/03/02 03:58:19;;;;;;;21.83;9.90;;;;;;;;;;5048926;28;20072;-61
2022/03/02 04:00:46;;;;;;;29.20;10.35;;;;;;;;;;5042524;28;20091;-63
2022/03/02 04:03:13;;;;;;;20.98;8.57;;;;;;;;;;5048097;28;20049;-62
2022/03/02 04:05:42;;;;;;;20.33;7.43;;;;;;;;;;5043002;28;20049;-62
2022/03/02 04:08:08;;;;;;;27.63;8.95;;;;;;;;;;5046967;28;20123;-58
2022/03/02 04:10:35;;;;;;;22.17;9.05;;;;;;;;;;5042827;28;20044;-63
2022/03/02 04:13:01;;;;;;;25.58;10.65;;;;;;;;;;5048397;28;20468;-63
2022/03/02 04:15:28;;;;;;;21.55;7.70;;;;;;;;;;5044795;28;20098;-62
2022/03/02 04:17:55;;;;;;;19.98;7.78;;;;;;;;;;5050740;28;20045;-62
2022/03/02 04:20:21;;;;;;;28.35;9.65;;;;;;;;;;5048154;28;20303;-59
2022/03/02 04:22:49;;;;;;;21.55;8.93;;;;;;;;;;5023898;28;20054;-58
2022/03/02 04:25:17;;;;;;;22.02;9.55;;;;;;;;;;5029410;28;20081;-61
2022/03/02 04:27:44;;;;;;;24.88;10.13;;;;;;;;;;5024831;28;20103;-56
2022/03/02 04:30:11;;;;;;;21.70;9.05;;;;;;;;;;5027531;28;20033;-60
2022/03/02 04:32:37;;;;;;;27.48;10.05;;;;;;;;;;5021975;28;20081;-56
2022/03/02 04:35:04;;;;;;;24.90;9.50;;;;;;;;;;5027947;28;20085;-58
2022/03/02 04:37:31;;;;;;;25.80;9.65;;;;;;;;;;5025044;28;20064;-65
2022/03/02 04:39:59;;;;;;;26.00;9.65;;;;;;;;;;5047401;28;20076;-59
2022/03/02 04:42:25;;;;;;;22.77;9.13;;;;;;;;;;5041736;28;20053;-62
2022/03/02 04:44:52;;;;;;;25.98;10.98;;;;;;;;;;5047327;28;20371;-63
2022/03/02 04:47:19;;;;;;;23.75;9.73;;;;;;;;;;5040875;28;20056;-60
2022/03/02 04:49:45;;;;;;;26.17;10.70;;;;;;;;;;5046907;28;20056;-55
2022/03/02 04:52:11;;;;;;;25.83;10.98;;;;;;;;;;5041293;28;20057;-62
2022/03/02 04:57:34;;;;;;;22.23;8.48;;;;;;;;;;5040791;28;20053;-60
2022/03/02 05:00:01;;;;;;;21.33;8.60;;;;;;;;;;5047107;28;20053;-58
2022/03/02 05:02:28;;;;;;;22.55;8.45;;;;;;;;;;5032675;28;20462;-59
2022/03/02 05:04:56;;;;;;;26.67;9.63;;;;;;;;;;5046320;28;20120;-60
2022/03/02 05:07:23;;;;;;;;;;;;;;;;;;5043442;28;20053;-62
2022/03/02 05:09:49;;;;;;;19.38;7.50;;;;;;;;;;5046003;28;19968;-61
2022/03/02 05:12:16;;;;;;;21.08;9.48;;;;;;;;;;5047971;28;20082;-62
2022/03/02 05:14:43;;;;;;;24.20;9.77;;;;;;;;;;5041941;28;20053;-63
2022/03/02 05:17:10;;;;;;;25.10;9.70;;;;;;;;;;5046911;28;20079;-62
2022/03/02 05:19:36;;;;;;;25.98;10.02;;;;;;;;;;5039851;28;20102;-61
2022/03/02 05:22:03;;;;;;;26.58;10.35;;;;;;;;;;5046538;28;20067;-63
2022/03/02 05:24:31;;;;;;;22.27;8.80;;;;;;;;;;5037226;28;20148;-60
2022/03/02 05:26:58;;;;;;;23.27;9.40;;;;;;;;;;5046795;28;20045;-63
2022/03/02 05:29:25;;;;;;;23.95;9.90;;;;;;;;;;5040174;28;20053;-62
2022/03/02 05:31:53;;;;;;;24.23;9.75;;;;;;;;;;5046971;28;20040;-58
2022/03/02 05:34:20;;;;;;;29.58;10.40;;;;;;;;;;5041110;28;20068;-62
2022/03/02 05:36:46;;;;;;;22.13;9.77;;;;;;;;;;5046602;28;20053;-63
2022/03/02 05:39:13;;;;;;;19.83;7.97;;;;;;;;;;5041282;28;20056;-61
2022/03/02 05:41:39;;;;;;;23.88;9.40;;;;;;;;;;5047007;28;20107;-62
2022/03/02 05:44:07;;;;;;;17.02;6.93;;;;;;;;;;5041502;28;20045;-62
2022/03/02 05:46:34;;;;;;;25.60;9.00;;;;;;;;;;5048811;28;20057;-61
2022/03/02 05:49:02;;;;;;;25.40;10.23;;;;;;;;;;5042722;28;20299;-58
2022/03/02 05:51:30;;;;;;;21.00;7.93;;;;;;;;;;5047727;28;20110;-58
2022/03/02 05:53:57;;;;;;;19.30;8.55;;;;;;;;;;5046788;28;20152;-60
2022/03/02 05:56:24;;;;;;;22.75;9.52;;;;;;;;;;5040533;28;20065;-57
2022/03/02 05:58:51;;;;;;;30.60;12.23;;;;;;;;;;5046181;28;20053;-58
2022/03/02 06:01:18;;;;;;;27.63;11.02;;;;;;;;;;5039954;28;20319;-62
2022/03/02 06:03:45;;;;;;;28.75;11.32;;;;;;;;;;5049076;28;20056;-63
2022/03/02 06:06:13;;;;;;;28.73;10.43;;;;;;;;;;5033998;28;20106;-55
2022/03/02 06:08:39;;;;;;;29.13;10.48;;;;;;;;;;5037958;28;20124;-59
2022/03/02 06:11:06;;;;;;;21.23;9.05;;;;;;;;;;5023525;28;20077;-61
2022/03/02 06:13:34;;;;;;;23.70;9.65;;;;;;;;;;5025594;28;20107;-57
2022/03/02 06:16:01;;;;;;;26.33;9.27;;;;;;;;;;5020429;28;20100;-59
2022/03/02 06:18:29;;;;;;;26.33;9.57;;;;;;;;;;5025926;28;20077;-57
2022/03/02 06:21:00;;;;;;;25.75;10.18;;;;;;;;;;5019862;28;20058;-58
2022/03/02 06:23:28;;;;;;;28.10;10.15;;;;;;;;;;5026404;28;20077;-59
2022/03/02 06:25:55;;;;;;;17.65;8.32;;;;;;;;;;5020204;28;20487;-57
2022/03/02 06:28:21;;;;;;;24.10;9.95;;;;;;;;;;5047334;28;20056;-62
2022/03/02 06:30:48;;;;;;;24.75;10.27;;;;;;;;;;5023047;28;20054;-63
2022/03/02 06:33:18;;;;;;;26.42;9.85;;;;;;;;;;5048584;28;20049;-63
2022/03/02 06:35:44;;;;;;;29.13;10.48;;;;;;;;;;5044447;28;20055;-61
2022/03/02 06:38:11;;;;;;;22.73;10.27;;;;;;;;;;5040630;28;20128;-58
2022/03/02 06:40:39;;;;;;;23.10;8.95;;;;;;;;;;5085213;28;20055;-61
2022/03/02 06:43:07;;;;;;;26.67;9.80;;;;;;;;;;5046053;28;20067;-62
2022/03/02 06:45:46;;;;;;;24.30;10.07;;;;;;;;;;5059188;28;20063;-61
2022/03/02 06:48:13;;;;;;;29.30;11.30;;;;;;;;;;5058828;28;20285;-58
2022/03/02 06:50:41;;;;;;;28.23;11.15;;;;;;;;;;5058729;28;20057;-61
2022/03/02 06:53:08;;;;;;;;;;;;;;;;;;5042718;28;20071;-62
2022/03/02 06:55:34;;;;;;;23.25;9.32;;;;;;;;;;5049026;28;20313;-62
2022/03/02 06:58:03;;;;;;;24.40;9.05;;;;;;;;;;5076414;28;20098;-57
2022/03/02 07:00:30;;;;;;;23.33;10.65;;;;;;;;;;5049284;28;20148;-62
2022/03/02 07:03:02;;;;;;;26.83;9.90;;;;;;;;;;5045068;28;20395;-59
2022/03/02 07:05:29;;;;;;;23.30;9.25;;;;;;;;;;5049316;28;20136;-63
2022/03/02 07:07:56;;;;;;;22.17;8.30;;;;;;;;;;5043707;28;20049;-62
2022/03/02 07:10:22;;;;;;;24.20;8.75;;;;;;;;;;5049354;28;20053;-64
2022/03/02 07:12:50;;;;;;;23.55;9.60;;;;;;;;;;5044649;28;20171;-63
2022/03/02 07:15:20;;;;;;;26.75;9.73;;;;;;;;;;5051618;28;20076;-63
2022/03/02 07:17:47;;;;;;;23.70;9.05;;;;;;;;;;5044312;28;20072;-60
2022/03/02 07:20:13;;;;;;;25.17;9.80;;;;;;;;;;5048465;28;20045;-57
2022/03/02 07:22:43;;;;;;;23.67;9.30;;;;;;;;;;5043039;28;20128;-60
2022/03/02 07:25:11;;;;;;;24.73;9.65;;;;;;;;;;5038747;28;20057;-59
2022/03/02 07:27:39;;;;;;;25.30;9.52;;;;;;;;;;5028277;28;20055;-62
2022/03/02 07:30:07;;;;;;;24.85;9.32;;;;;;;;;;5022118;28;20212;-62
2022/03/02 07:32:37;;;;;;;22.77;9.13;;;;;;;;;;5028567;28;20103;-56
2022/03/02 07:35:06;;;;;;;20.70;8.43;;;;;;;;;;5034670;28;20049;-61
2022/03/02 07:37:33;;;;;;;23.25;8.68;;;;;;;;;;5048185;28;20048;-60
2022/03/02 07:40:00;;;;;;;20.58;8.60;;;;;;;;;;5042018;28;20049;-62
2022/03/02 07:42:27;;;;;;;21.00;8.15;;;;;;;;;;5048281;28;20040;-62
2022/03/02 07:44:55;;;;;;;21.45;9.13;;;;;;;;;;5043203;28;20147;-58
2022/03/02 07:47:21;;;;;;;22.90;8.95;;;;;;;;;;5047818;28;20064;-61
2022/03/02 07:49:49;;;;;;;24.20;9.82;;;;;;;;;;5042181;28;20233;-59
2022/03/02 07:52:16;;;;;;;23.47;9.13;;;;;;;;;;5048375;28;20052;-57
2022/03/02 07:54:43;;;;;;;21.92;9.05;;;;;;;;;;5041885;28;20406;-60
2022/03/02 07:57:10;;;;;;;19.20;7.90;;;;;;;;;;5047357;28;20136;-60
2022/03/02 07:59:38;;;;;;;22.27;8.20;;;;;;;;;;5041527;28;20049;-56
2022/03/02 08:02:05;;;;;;;19.90;8.88;;;;;;;;;;5047527;28;20076;-58
2022/03/02 08:04:32;;;;;;;22.92;9.50;;;;;;;;;;5042203;28;20061;-59
2022/03/02 08:07:00;;;;;;;17.08;7.10;;;;;;;;;;5047575;28;20053;-58
2022/03/02 08:09:27;;;;;;;17.77;7.55;;;;;;;;;;5043567;28;20049;-58
2022/03/02 08:11:53;;;;;;;23.40;8.80;;;;;;;;;;5048455;28;20571;-58
2022/03/02 08:14:23;;;;;;;25.20;8.88;;;;;;;;;;5048170;28;20056;-57
2022/03/02 08:16:52;;;;;;;20.90;8.90;;;;;;;;;;5041225;28;20102;-62
2022/03/02 08:19:20;;;;;;;20.23;8.32;;;;;;;;;;5047148;28;20053;-61
2022/03/02 08:21:47;;;;;;;22.38;8.50;;;;;;;;;;5026179;28;20049;-60
2022/03/02 08:24:17;;;;;;;19.27;8.20;;;;;;;;;;5027237;28;20136;-59
2022/03/02 08:26:48;;;;;;;17.65;6.82;;;;;;;;;;5021871;28;20049;-61
2022/03/02 08:29:15;;;;;;;24.27;9.10;;;;;;;;;;5026444;28;20057;-58
2022/03/02 08:31:43;;;;;;;31.48;10.80;;;;;;;;;;5021847;28;20046;-63
2022/03/02 08:34:10;;;;;;;20.67;8.50;;;;;;;;;;5027531;28;20044;-62
2022/03/02 08:36:37;;;;;;;22.42;8.40;;;;;;;;;;5024518;28;20037;-58
2022/03/02 08:39:04;;;;;;;22.33;9.45;;;;;;;;;;5047769;28;20080;-61
2022/03/02 08:41:33;;;;;;;19.40;8.35;;;;;;;;;;5041851;28;20053;-60
2022/03/02 08:43:59;;;;;;;24.42;9.40;;;;;;;;;;5048964;28;20049;-61
2022/03/02 08:46:26;;;;;;;24.30;8.80;;;;;;;;;;5042957;28;20052;-62
2022/03/02 08:48:53;;;;;;;14.93;5.80;;;;;;;;;;5047976;28;20114;-59
2022/03/02 08:51:20;;;;;;;22.20;8.15;;;;;;;;;;5041910;28;20147;-56
2022/03/02 08:53:48;;;;;;;20.75;7.82;;;;;;;;;;5047360;28;20118;-58
2022/03/02 08:56:16;;;;;;;14.23;5.75;;;;;;;;;;5042637;28;20172;-60
2022/03/02 08:58:44;;;;;;;20.30;7.90;;;;;;;;;;5040567;28;20085;-59
2022/03/02 09:01:12;;;;;;;17.30;7.60;;;;;;;;;;5046700;28;20127;-61
2022/03/02 09:03:43;;;;;;;19.65;7.82;;;;;;;;;;5041129;28;20045;-61
2022/03/02 09:06:13;;;;;;;22.58;7.95;;;;;;;;;;5046331;28;20133;-61
2022/03/02 09:08:40;;;;;;;15.18;6.78;;;;;;;;;;5040369;28;20060;-63
2022/03/02 09:11:07;;;;;;;16.02;6.53;;;;;;;;;;5045947;28;20048;-62
2022/03/02 09:13:33;;;;;;;15.77;5.75;;;;;;;;;;5031297;28;20049;-59
2022/03/02 09:16:03;;;;;;;24.75;8.15;;;;;;;;;;5046219;28;20084;-60
2022/03/02 09:18:30;;;;;;;22.15;7.47;;;;;;;;;;5040470;28;20061;-63
2022/03/02 09:21:00;;;;;;;17.73;7.30;;;;;;;;;;5045861;28;20052;-62
2022/03/02 09:23:29;;;;;;;24.92;9.48;;;;;;;;;;5040405;28;20049;-63
2022/03/02 09:25:55;;;;;;;;;;;;;;;;;;5046580;28;20080;-62
2022/03/02 09:28:22;;;;;;;20.45;7.75;;;;;;;;;;5073414;28;19964;-62
2022/03/02 09:30:50;;;;;;;20.15;7.35;;;;;;;;;;5045649;28;20055;-59
2022/03/02 09:33:18;;;;;;;17.50;6.78;;;;;;;;;;5040363;28;20138;-60
2022/03/02 09:35:46;;;;;;;18.58;6.50;;;;;;;;;;5046260;28;20061;-57
2022/03/02 09:38:12;;;;;;;17.90;5.95;;;;;;;;;;5041018;28;20064;-58
2022/03/02 09:40:43;;;;;;;21.85;7.57;;;;;;;;;;5047055;28;20454;-57
2022/03/02 09:43:16;;;;;;;19.98;7.20;;;;;;;;;;5038416;28;20112;-58
2022/03/02 09:45:44;;;;;;;30.45;9.65;;;;;;;;;;5013244;28;20060;-60
2022/03/02 09:48:17;;;;;;;24.75;9.88;;;;;;;;;;5006574;28;20062;-60
2022/03/02 09:50:45;;;;;;;22.38;9.43;;;;;;;;;;5038817;28;20050;-57
2022/03/02 09:53:13;;;;;;;21.80;8.43;;;;;;;;;;5006303;28;20100;-58
2022/03/02 09:55:40;;;;;;;21.13;7.68;;;;;;;;;;5018838;28;20733;-59
2022/03/02 09:58:07;;;;;;;22.27;7.43;;;;;;;;;;5026312;28;20140;-61
2022/03/02 10:00:35;;;;;;;20.10;7.97;;;;;;;;;;5020674;28;20060;-63
2022/03/02 10:03:02;;;;;;;18.33;7.20;;;;;;;;;;5026316;28;20144;-63
2022/03/02 10:05:32;;;;;;;24.67;9.13;;;;;;;;;;5021675;28;20119;-60
2022/03/02 10:08:01;;;;;;;19.80;7.53;;;;;;;;;;5027021;28;20056;-61
2022/03/02 10:10:33;;;;;;;26.58;8.35;;;;;;;;;;5022165;28;20046;-61
2022/03/02 10:13:01;;;;;;;20.00;7.90;;;;;;;;;;5038577;28;20053;-63
2022/03/02 10:15:30;;;;;;;20.48;7.07;;;;;;;;;;5041102;28;20053;-55
2022/03/02 10:17:58;;;;;;;20.67;8.52;;;;;;;;;;5044238;28;20141;-62
2022/03/02 10:20:26;;;;;;;16.73;6.53;;;;;;;;;;5040258;28;20049;-60
2022/03/02 10:23:18;;;;;;;18.40;7.05;;;;;;;;;;5046059;28;20076;-61
2022/03/02 10:26:06;;;;;;;17.38;6.72;;;;;;;;;;5030440;28;20241;-58
2022/03/02 10:28:40;;;;;;;23.40;8.03;;;;;;;;;;5041183;28;20041;-58
2022/03/02 10:31:19;;;;;;;18.20;8.00;;;;;;;;;;5040218;28;20509;-54
2022/03/02 10:33:47;;;;;;;19.60;7.35;;;;;;;;;;5045693;28;20075;-62
2022/03/02 10:36:14;;;;;;;23.50;7.07;;;;;;;;;;5028060;28;20112;-60
2022/03/02 10:38:49;;;;;;;19.55;7.95;;;;;;;;;;5037017;28;20152;-62
2022/03/02 10:41:15;;;;;;;18.92;7.28;;;;;;;;;;5073710;28;20136;-55
2022/03/02 10:43:48;;;;;;;15.45;6.38;;;;;;;;;;5045656;28;20114;-63
2022/03/02 10:46:19;;;;;;;20.13;7.28;;;;;;;;;;5039980;28;20157;-59
2022/03/02 10:48:47;;;;;;;16.95;6.88;;;;;;;;;;5045298;28;20080;-58
2022/03/02 10:51:14;;;;;;;18.38;7.00;;;;;;;;;;5040262;28;20049;-55
2022/03/02 10:53:44;;;;;;;16.77;6.45;;;;;;;;;;5045465;28;20053;-62
2022/03/02 10:56:17;;;;;;;14.90;6.20;;;;;;;;;;5039670;28;20060;-63
2022/03/02 10:58:48;;;;;;;16.83;7.45;;;;;;;;;;5045231;28;20135;-58
2022/03/02 11:01:14;;;;;;;20.20;7.55;;;;;;;;;;5039242;28;20102;-62
2022/03/02 11:03:41;;;;;;;17.83;7.45;;;;;;;;;;5045214;28;20175;-61
2022/03/02 11:06:08;;;;;;;19.92;7.65;;;;;;;;;;5045841;28;20059;-59
2022/03/02 11:08:35;;;;;;;19.23;6.97;;;;;;;;;;5040103;28;20048;-58
2022/03/02 11:11:01;;;;;;;19.73;7.18;;;;;;;;;;5046023;28;20060;-60
2022/03/02 11:13:29;;;;;;;19.35;7.47;;;;;;;;;;5039635;28;20085;-63
2022/03/02 11:15:57;;;;;;;18.65;7.50;;;;;;;;;;5073879;28;20061;-58
2022/03/02 11:18:33;;;;;;;18.65;8.02;;;;;;;;;;5038192;28;20045;-64
2022/03/02 11:21:01;;;;;;;20.08;7.60;;;;;;;;;;5025063;28;20042;-63
2022/03/02 11:23:28;;;;;;;18.65;7.95;;;;;;;;;;5025599;28;20061;-64
2022/03/02 11:25:56;;;;;;;23.73;7.65;;;;;;;;;;5048693;28;20053;-63
2022/03/02 11:28:23;;;;;;;22.13;8.40;;;;;;;;;;5035204;28;20057;-64
2022/03/02 11:30:53;;;;;;;19.90;6.72;;;;;;;;;;5036045;28;20112;-63
2022/03/02 11:33:24;;;;;;;17.83;6.80;;;;;;;;;;5015254;28;20053;-57
2022/03/02 11:35:51;;;;;;;20.23;6.78;;;;;;;;;;5029401;28;20073;-61
2022/03/02 11:38:20;;;;;;;19.38;6.88;;;;;;;;;;5029075;28;20123;-58
2022/03/02 11:40:48;;;;;;;17.17;7.15;;;;;;;;;;5048201;28;20290;-59
2022/03/02 11:43:16;;;;;;;16.90;6.80;;;;;;;;;;5046637;28;20049;-63
2022/03/02 11:45:43;;;;;;;19.23;7.45;;;;;;;;;;5049356;28;20049;-61
2022/03/02 11:48:13;;;;;;;21.35;7.22;;;;;;;;;;5040509;28;20053;-59
2022/03/02 11:50:59;;;;;;;16.67;6.93;;;;;;;;;;5020903;28;20064;-59
2022/03/02 11:53:30;;;;;;;18.90;7.47;;;;;;;;;;5006244;28;21481;-60
2022/03/02 11:55:57;;;;;;;20.35;7.93;;;;;;;;;;5027687;28;20456;-59
2022/03/02 11:58:23;;;;;;;18.23;6.82;;;;;;;;;;5022243;28;20053;-59
2022/03/02 12:00:50;;;;;;;18.52;7.15;;;;;;;;;;5039330;28;20132;-59
2022/03/02 12:03:18;;;;;;;16.75;7.25;;;;;;;;;;5047458;28;20151;-59
2022/03/02 12:05:45;;;;;;;19.08;7.55;;;;;;;;;;5041692;28;20057;-64
2022/03/02 12:08:12;;;;;;;23.98;8.23;;;;;;;;;;5047339;28;20048;-57
2022/03/02 12:10:40;;;;;;;16.77;7.40;;;;;;;;;;5041602;28;20068;-57
2022/03/02 12:13:06;;;;;;;17.85;7.28;;;;;;;;;;5047826;28;20048;-62
2022/03/02 12:15:43;;;;;;;20.67;8.40;;;;;;;;;;5041956;28;20064;-63
2022/03/02 12:18:12;;;;;;;16.50;6.72;;;;;;;;;;5039311;28;20127;-62
2022/03/02 12:20:45;;;;;;;18.15;7.00;;;;;;;;;;5042439;28;20061;-59
2022/03/02 12:23:12;;;;;;;15.85;7.22;;;;;;;;;;5047529;28;20470;-60
2022/03/02 12:25:43;;;;;;;18.42;7.95;;;;;;;;;;5042612;28;20132;-60
2022/03/02 12:28:12;;;;;;;22.23;7.85;;;;;;;;;;5048282;28;20071;-60
2022/03/02 12:30:39;;;;;;;16.38;7.43;;;;;;;;;;5043357;28;20063;-63
2022/03/02 12:33:06;;;;;;;17.42;7.18;;;;;;;;;;5048995;28;20056;-60
2022/03/02 12:35:34;;;;;;;16.05;7.07;;;;;;;;;;5043469;28;20144;-59
2022/03/02 12:38:03;;;;;;;14.30;6.57;;;;;;;;;;5048291;28;20051;-60
2022/03/02 12:40:31;;;;;;;16.20;7.13;;;;;;;;;;5042611;28;20479;-60
2022/03/02 12:42:58;;;;;;;16.48;7.30;;;;;;;;;;5044352;28;20067;-64
2022/03/02 12:45:25;;;;;;;18.73;7.82;;;;;;;;;;5042943;28;20088;-60
2022/03/02 12:47:52;;;;;;;16.48;7.70;;;;;;;;;;5046792;28;20057;-62
2022/03/02 12:50:19;;;;;;;17.73;6.95;;;;;;;;;;5035689;28;20053;-64
2022/03/02 12:52:47;;;;;;;17.17;6.88;;;;;;;;;;5045646;28;20071;-65
2022/03/02 12:55:17;;;;;;;17.30;7.70;;;;;;;;;;5047001;28;20047;-63
2022/03/02 12:57:43;;;;;;;17.15;7.25;;;;;;;;;;5040798;28;20052;-66
2022/03/02 13:00:12;;;;;;;18.05;6.85;;;;;;;;;;5046892;28;20079;-61
2022/03/02 13:02:39;;;;;;;21.00;7.40;;;;;;;;;;5040925;28;20060;-62
2022/03/02 13:05:09;;;;;;;20.42;7.43;;;;;;;;;;5047177;28;20049;-64
2022/03/02 13:07:45;;;;;;;20.15;7.47;;;;;;;;;;5041464;28;20053;-62
2022/03/02 13:10:12;;;;;;;16.40;6.65;;;;;;;;;;5046699;28;20061;-66
2022/03/02 13:12:41;;;;;;;17.48;6.47;;;;;;;;;;5041645;28;20139;-62
2022/03/02 13:15:24;;;;;;;18.25;8.05;;;;;;;;;;5047557;28;20048;-65
2022/03/02 13:18:05;;;;;;;15.35;7.63;;;;;;;;;;5042284;28;20053;-64
2022/03/02 13:20:31;;;;;;;16.33;7.15;;;;;;;;;;5048285;28;20060;-61
2022/03/02 13:23:11;;;;;;;16.80;6.85;;;;;;;;;;5040934;28;20060;-60
2022/03/02 13:25:37;;;;;;;15.85;6.70;;;;;;;;;;5026218;28;20504;-61
2022/03/02 13:28:13;;;;;;;15.07;5.97;;;;;;;;;;5043506;28;20053;-57
2022/03/02 13:30:39;;;;;;;14.60;6.38;;;;;;;;;;5026908;28;20100;-60
2022/03/02 13:33:06;;;;;;;15.07;6.95;;;;;;;;;;5054231;28;20053;-58
2022/03/02 13:35:35;;;;;;;16.23;6.32;;;;;;;;;;5026601;28;20057;-64
2022/03/02 13:38:06;;;;;;;14.73;6.65;;;;;;;;;;5029383;28;20059;-63
2022/03/02 13:40:51;;;;;;;15.85;7.05;;;;;;;;;;5025965;28;20085;-61
2022/03/02 13:43:34;;;;;;;18.40;7.50;;;;;;;;;;5019285;28;20050;-60
2022/03/02 13:46:19;;;;;;;13.55;6.22;;;;;;;;;;5017483;28;20092;-58
2022/03/02 13:48:54;;;;;;;16.13;6.75;;;;;;;;;;5035737;28;20055;-60
2022/03/02 13:51:23;;;;;;;17.30;7.00;;;;;;;;;;5026299;28;20140;-65
2022/03/02 13:53:58;;;;;;;15.40;6.13;;;;;;;;;;5027542;28;20063;-63
2022/03/02 13:56:48;;;;;;;14.73;7.22;;;;;;;;;;5045762;28;20056;-63
2022/03/02 13:59:18;;;;;;;13.23;6.35;;;;;;;;;;5039366;28;20088;-65
2022/03/02 14:01:45;;;;;;;15.15;7.28;;;;;;;;;;5051262;28;20500;-65
2022/03/02 14:04:18;;;;;;;13.48;5.88;;;;;;;;;;5044455;28;20145;-64
2022/03/02 14:06:45;;;;;;;15.23;6.55;;;;;;;;;;5038344;28;20076;-62
2022/03/02 14:09:13;;;;;;;15.77;7.65;;;;;;;;;;5039957;28;20471;-60
2022/03/02 14:11:41;;;;;;;14.60;6.55;;;;;;;;;;5045576;28;20057;-61
2022/03/02 14:14:09;;;;;;;15.00;6.17;;;;;;;;;;5040573;28;20140;-61
2022/03/02 14:16:37;;;;;;;12.98;5.47;;;;;;;;;;5045698;28;20728;-60
2022/03/02 14:19:10;;;;;;;11.68;5.55;;;;;;;;;;5039648;28;20451;-61
2022/03/02 14:21:37;;;;;;;13.40;6.40;;;;;;;;;;5046280;28;20110;-59
2022/03/02 14:24:14;;;;;;;12.73;6.05;;;;;;;;;;5031876;28;20049;-60
2022/03/02 14:27:04;;;;;;;13.05;5.78;;;;;;;;;;5045589;28;20505;-65
2022/03/02 14:29:32;;;;;;;15.07;6.00;;;;;;;;;;5039207;28;20049;-64
2022/03/02 14:32:01;;;;;;;12.67;5.47;;;;;;;;;;5045724;28;20053;-62
2022/03/02 14:34:43;;;;;;;14.10;6.07;;;;;;;;;;5040414;28;20076;-62
2022/03/02 14:37:10;;;;;;;16.40;6.50;;;;;;;;;;5045792;28;20056;-63